sensor_id;sensor_type;location;lat;lon;timestamp;P1;durP1;ratioP1;P2;durP2;ratioP2
69386;SDS011;56575;48.942;8.404;2022-07-23T00:00:52;10.10;;;8.05;;
69386;SDS011;56575;48.942;8.404;2022-07-23T00:03:17;11.13;;;8.33;;
69386;SDS011;56575;48.942;8.404;2022-07-23T00:05:43;9.53;;;7.90;;
69386;SDS011;56575;48.942;8.404;2022-07-23T00:11:04;10.80;;;7.60;;
69386;SDS011;56575;48.942;8.404;2022-07-23T00:13:29;8.70;;;7.30;;
69386;SDS011;56575;48.942;8.404;2022-07-23T00:15:55;11.35;;;7.25;;
69386;SDS011;56575;48.942;8.404;2022-07-23T00:18:20;7.70;;;6.90;;
69386;SDS011;56575;48.942;8.404;2022-07-23T00:20:46;8.85;;;7.40;;
69386;SDS011;56575;48.942;8.404;2022-07-23T00:23:12;9.03;;;7.00;;
69386;SDS011;56575;48.942;8.404;2022-07-23T00:25:37;8.40;;;7.28;;
69386;SDS011;56575;48.942;8.404;2022-07-23T00:28:03;10.23;;;8.07;;
69386;SDS011;56575;48.942;8.404;2022-07-23T00:30:29;12.03;;;7.33;;
69386;SDS011;56575;48.942;8.404;2022-07-23T00:32:56;9.80;;;7.70;;
69386;SDS011;56575;48.942;8.404;2022-07-23T00:35:24;8.40;;;7.05;;
69386;SDS011;56575;48.942;8.404;2022-07-23T00:37:51;10.02;;;7.47;;
69386;SDS011;56575;48.942;8.404;2022-07-23T00:40:16;8.97;;;6.60;;
69386;SDS011;56575;48.942;8.404;2022-07-23T00:42:42;9.48;;;7.10;;
69386;SDS011;56575;48.942;8.404;2022-07-23T00:45:07;8.90;;;6.90;;
69386;SDS011;56575;48.942;8.404;2022-07-23T00:47:33;8.48;;;6.45;;
69386;SDS011;56575;48.942;8.404;2022-07-23T00:50:01;7.30;;;6.03;;
69386;SDS011;56575;48.942;8.404;2022-07-23T00:59:32;9.15;;;6.63;;
69386;SDS011;56575;48.942;8.404;2022-07-23T01:02:00;10.33;;;6.30;;
69386;SDS011;56575;48.942;8.404;2022-07-23T01:04:27;8.80;;;6.30;;
69386;SDS011;56575;48.942;8.404;2022-07-23T01:17:07;7.60;;;5.57;;
69386;SDS011;56575;48.942;8.404;2022-07-23T01:19:33;7.43;;;5.97;;
69386;SDS011;56575;48.942;8.404;2022-07-23T01:21:58;7.78;;;5.38;;
69386;SDS011;56575;48.942;8.404;2022-07-23T01:24:27;8.13;;;5.27;;
69386;SDS011;56575;48.942;8.404;2022-07-23T01:26:53;8.00;;;5.35;;
69386;SDS011;56575;48.942;8.404;2022-07-23T01:29:18;9.57;;;5.63;;
69386;SDS011;56575;48.942;8.404;2022-07-23T01:31:46;7.00;;;5.55;;
69386;SDS011;56575;48.942;8.404;2022-07-23T01:34:12;8.25;;;5.20;;
69386;SDS011;56575;48.942;8.404;2022-07-23T01:36:37;7.97;;;5.30;;
69386;SDS011;56575;48.942;8.404;2022-07-23T01:39:03;7.07;;;5.20;;
69386;SDS011;56575;48.942;8.404;2022-07-23T01:41:30;6.57;;;5.10;;
69386;SDS011;56575;48.942;8.404;2022-07-23T01:43:56;7.90;;;5.45;;
69386;SDS011;56575;48.942;8.404;2022-07-23T01:46:21;7.63;;;5.00;;
69386;SDS011;56575;48.942;8.404;2022-07-23T01:48:47;6.75;;;5.10;;
69386;SDS011;56575;48.942;8.404;2022-07-23T01:51:14;6.93;;;5.25;;
69386;SDS011;56575;48.942;8.404;2022-07-23T01:53:39;6.93;;;5.07;;
69386;SDS011;56575;48.942;8.404;2022-07-23T01:56:05;6.32;;;5.00;;
69386;SDS011;56575;48.942;8.404;2022-07-23T01:58:30;7.63;;;5.07;;
69386;SDS011;56575;48.942;8.404;2022-07-23T02:00:56;6.90;;;5.27;;
69386;SDS011;56575;48.942;8.404;2022-07-23T02:03:23;5.80;;;4.95;;
69386;SDS011;56575;48.942;8.404;2022-07-23T02:05:48;7.67;;;4.70;;
69386;SDS011;56575;48.942;8.404;2022-07-23T02:08:14;7.15;;;5.10;;
69386;SDS011;56575;48.942;8.404;2022-07-23T02:10:40;5.90;;;4.53;;
69386;SDS011;56575;48.942;8.404;2022-07-23T02:13:05;7.10;;;4.77;;
69386;SDS011;56575;48.942;8.404;2022-07-23T02:15:31;7.97;;;4.43;;
69386;SDS011;56575;48.942;8.404;2022-07-23T02:17:57;6.80;;;5.18;;
69386;SDS011;56575;48.942;8.404;2022-07-23T02:20:22;7.53;;;4.87;;
69386;SDS011;56575;48.942;8.404;2022-07-23T02:22:48;7.60;;;4.97;;
69386;SDS011;56575;48.942;8.404;2022-07-23T02:25:14;7.00;;;4.50;;
69386;SDS011;56575;48.942;8.404;2022-07-23T02:27:39;8.77;;;4.90;;
69386;SDS011;56575;48.942;8.404;2022-07-23T03:02:30;6.53;;;4.60;;
69386;SDS011;56575;48.942;8.404;2022-07-23T03:12:54;7.70;;;4.90;;
69386;SDS011;56575;48.942;8.404;2022-07-23T03:15:42;7.82;;;4.70;;
69386;SDS011;56575;48.942;8.404;2022-07-23T03:28:12;6.40;;;4.80;;
69386;SDS011;56575;48.942;8.404;2022-07-23T03:30:41;7.70;;;5.35;;
69386;SDS011;56575;48.942;8.404;2022-07-23T03:33:32;7.13;;;5.10;;
69386;SDS011;56575;48.942;8.404;2022-07-23T03:45:13;8.07;;;5.10;;
69386;SDS011;56575;48.942;8.404;2022-07-23T03:47:39;8.93;;;5.07;;
69386;SDS011;56575;48.942;8.404;2022-07-23T03:50:04;7.70;;;5.30;;
69386;SDS011;56575;48.942;8.404;2022-07-23T03:52:30;6.78;;;5.13;;
69386;SDS011;56575;48.942;8.404;2022-07-23T03:54:55;6.53;;;4.70;;
69386;SDS011;56575;48.942;8.404;2022-07-23T03:57:21;8.48;;;5.72;;
69386;SDS011;56575;48.942;8.404;2022-07-23T03:59:46;9.00;;;5.57;;
69386;SDS011;56575;48.942;8.404;2022-07-23T04:02:12;7.00;;;5.23;;
69386;SDS011;56575;48.942;8.404;2022-07-23T04:04:37;7.30;;;5.30;;
69386;SDS011;56575;48.942;8.404;2022-07-23T04:07:02;7.18;;;5.00;;
69386;SDS011;56575;48.942;8.404;2022-07-23T04:09:28;5.87;;;4.83;;
69386;SDS011;56575;48.942;8.404;2022-07-23T04:11:53;6.93;;;5.17;;
69386;SDS011;56575;48.942;8.404;2022-07-23T04:14:19;7.23;;;5.23;;
69386;SDS011;56575;48.942;8.404;2022-07-23T04:16:44;11.37;;;5.20;;
69386;SDS011;56575;48.942;8.404;2022-07-23T04:19:09;7.07;;;5.10;;
69386;SDS011;56575;48.942;8.404;2022-07-23T04:21:35;7.43;;;5.23;;
69386;SDS011;56575;48.942;8.404;2022-07-23T04:24:00;8.67;;;4.93;;
69386;SDS011;56575;48.942;8.404;2022-07-23T04:26:26;9.68;;;5.63;;
69386;SDS011;56575;48.942;8.404;2022-07-23T04:28:51;12.97;;;5.87;;
69386;SDS011;56575;48.942;8.404;2022-07-23T04:31:17;9.00;;;5.33;;
69386;SDS011;56575;48.942;8.404;2022-07-23T04:33:42;7.90;;;4.90;;
69386;SDS011;56575;48.942;8.404;2022-07-23T04:36:08;8.77;;;5.22;;
69386;SDS011;56575;48.942;8.404;2022-07-23T04:41:34;7.70;;;5.45;;
69386;SDS011;56575;48.942;8.404;2022-07-23T04:44:00;7.25;;;5.10;;
69386;SDS011;56575;48.942;8.404;2022-07-23T04:46:26;9.60;;;5.70;;
69386;SDS011;56575;48.942;8.404;2022-07-23T04:48:52;8.90;;;5.30;;
69386;SDS011;56575;48.942;8.404;2022-07-23T04:51:18;8.43;;;5.50;;
69386;SDS011;56575;48.942;8.404;2022-07-23T04:53:43;9.73;;;5.60;;
69386;SDS011;56575;48.942;8.404;2022-07-23T04:56:09;8.27;;;5.30;;
69386;SDS011;56575;48.942;8.404;2022-07-23T04:58:34;9.37;;;5.17;;
69386;SDS011;56575;48.942;8.404;2022-07-23T05:01:13;10.05;;;5.70;;
69386;SDS011;56575;48.942;8.404;2022-07-23T05:03:38;6.60;;;5.03;;
69386;SDS011;56575;48.942;8.404;2022-07-23T05:06:04;7.27;;;5.03;;
69386;SDS011;56575;48.942;8.404;2022-07-23T05:08:29;7.53;;;5.27;;
69386;SDS011;56575;48.942;8.404;2022-07-23T05:10:55;7.13;;;5.20;;
69386;SDS011;56575;48.942;8.404;2022-07-23T05:13:20;6.90;;;5.27;;
69386;SDS011;56575;48.942;8.404;2022-07-23T05:15:46;6.97;;;5.50;;
69386;SDS011;56575;48.942;8.404;2022-07-23T05:21:11;7.70;;;5.38;;
69386;SDS011;56575;48.942;8.404;2022-07-23T05:23:39;7.30;;;5.18;;
69386;SDS011;56575;48.942;8.404;2022-07-23T05:26:07;9.77;;;5.55;;
69386;SDS011;56575;48.942;8.404;2022-07-23T05:28:36;7.03;;;5.40;;
69386;SDS011;56575;48.942;8.404;2022-07-23T05:31:01;8.85;;;5.13;;
69386;SDS011;56575;48.942;8.404;2022-07-23T05:33:29;7.80;;;5.30;;
69386;SDS011;56575;48.942;8.404;2022-07-23T05:35:59;7.17;;;5.40;;
69386;SDS011;56575;48.942;8.404;2022-07-23T05:38:28;9.20;;;5.40;;
69386;SDS011;56575;48.942;8.404;2022-07-23T05:41:10;8.65;;;5.45;;
69386;SDS011;56575;48.942;8.404;2022-07-23T05:43:40;7.28;;;5.40;;
69386;SDS011;56575;48.942;8.404;2022-07-23T05:46:07;8.40;;;5.85;;
69386;SDS011;56575;48.942;8.404;2022-07-23T05:48:33;9.00;;;5.83;;
69386;SDS011;56575;48.942;8.404;2022-07-23T05:50:58;8.80;;;5.77;;
69386;SDS011;56575;48.942;8.404;2022-07-23T05:53:25;7.53;;;5.00;;
69386;SDS011;56575;48.942;8.404;2022-07-23T05:55:50;7.72;;;5.80;;
69386;SDS011;56575;48.942;8.404;2022-07-23T05:58:16;8.50;;;5.53;;
69386;SDS011;56575;48.942;8.404;2022-07-23T06:00:41;7.70;;;5.53;;
69386;SDS011;56575;48.942;8.404;2022-07-23T06:03:07;10.27;;;6.38;;
69386;SDS011;56575;48.942;8.404;2022-07-23T06:08:40;9.93;;;6.13;;
69386;SDS011;56575;48.942;8.404;2022-07-23T06:11:09;9.40;;;6.53;;
69386;SDS011;56575;48.942;8.404;2022-07-23T06:13:38;10.40;;;6.73;;
69386;SDS011;56575;48.942;8.404;2022-07-23T06:16:03;12.13;;;6.78;;
69386;SDS011;56575;48.942;8.404;2022-07-23T06:18:29;8.87;;;6.40;;
69386;SDS011;56575;48.942;8.404;2022-07-23T06:20:54;8.77;;;6.13;;
69386;SDS011;56575;48.942;8.404;2022-07-23T06:23:20;9.23;;;6.40;;
69386;SDS011;56575;48.942;8.404;2022-07-23T06:25:45;10.20;;;6.40;;
69386;SDS011;56575;48.942;8.404;2022-07-23T06:28:11;8.32;;;6.28;;
69386;SDS011;56575;48.942;8.404;2022-07-23T06:30:36;9.50;;;7.10;;
69386;SDS011;56575;48.942;8.404;2022-07-23T06:33:02;10.00;;;6.60;;
69386;SDS011;56575;48.942;8.404;2022-07-23T06:35:28;8.07;;;6.37;;
69386;SDS011;56575;48.942;8.404;2022-07-23T06:37:53;10.67;;;6.87;;
69386;SDS011;56575;48.942;8.404;2022-07-23T06:40:19;9.40;;;6.72;;
69386;SDS011;56575;48.942;8.404;2022-07-23T06:42:45;11.23;;;6.67;;
69386;SDS011;56575;48.942;8.404;2022-07-23T06:45:10;10.63;;;6.45;;
69386;SDS011;56575;48.942;8.404;2022-07-23T06:47:36;9.23;;;6.70;;
69386;SDS011;56575;48.942;8.404;2022-07-23T06:50:02;9.30;;;6.50;;
69386;SDS011;56575;48.942;8.404;2022-07-23T06:52:28;9.73;;;6.27;;
69386;SDS011;56575;48.942;8.404;2022-07-23T06:54:53;9.77;;;7.13;;
69386;SDS011;56575;48.942;8.404;2022-07-23T06:57:18;14.63;;;6.93;;
69386;SDS011;56575;48.942;8.404;2022-07-23T06:59:44;9.70;;;6.60;;
69386;SDS011;56575;48.942;8.404;2022-07-23T07:02:09;9.10;;;6.90;;
69386;SDS011;56575;48.942;8.404;2022-07-23T07:04:35;9.67;;;7.07;;
69386;SDS011;56575;48.942;8.404;2022-07-23T07:07:01;9.43;;;6.70;;
69386;SDS011;56575;48.942;8.404;2022-07-23T07:09:26;10.47;;;7.10;;
69386;SDS011;56575;48.942;8.404;2022-07-23T07:11:52;10.77;;;7.70;;
69386;SDS011;56575;48.942;8.404;2022-07-23T07:14:17;10.37;;;7.63;;
69386;SDS011;56575;48.942;8.404;2022-07-23T07:16:43;10.65;;;7.30;;
69386;SDS011;56575;48.942;8.404;2022-07-23T07:19:08;10.37;;;7.07;;
69386;SDS011;56575;48.942;8.404;2022-07-23T07:21:34;11.55;;;7.80;;
69386;SDS011;56575;48.942;8.404;2022-07-23T07:24:00;13.43;;;7.70;;
69386;SDS011;56575;48.942;8.404;2022-07-23T07:26:27;11.93;;;8.25;;
69386;SDS011;56575;48.942;8.404;2022-07-23T07:28:53;9.30;;;7.57;;
69386;SDS011;56575;48.942;8.404;2022-07-23T07:31:18;10.13;;;7.70;;
69386;SDS011;56575;48.942;8.404;2022-07-23T07:33:44;10.40;;;7.20;;
69386;SDS011;56575;48.942;8.404;2022-07-23T07:36:09;10.10;;;7.10;;
69386;SDS011;56575;48.942;8.404;2022-07-23T07:38:35;12.50;;;8.03;;
69386;SDS011;56575;48.942;8.404;2022-07-23T07:41:00;10.83;;;7.90;;
69386;SDS011;56575;48.942;8.404;2022-07-23T07:43:26;11.30;;;8.10;;
69386;SDS011;56575;48.942;8.404;2022-07-23T07:45:52;11.83;;;7.53;;
69386;SDS011;56575;48.942;8.404;2022-07-23T07:48:18;10.80;;;7.63;;
69386;SDS011;56575;48.942;8.404;2022-07-23T07:50:43;11.07;;;8.40;;
69386;SDS011;56575;48.942;8.404;2022-07-23T07:53:09;11.53;;;8.40;;
69386;SDS011;56575;48.942;8.404;2022-07-23T07:55:34;9.45;;;7.43;;
69386;SDS011;56575;48.942;8.404;2022-07-23T07:58:00;12.13;;;7.40;;
69386;SDS011;56575;48.942;8.404;2022-07-23T08:00:27;11.50;;;7.50;;
69386;SDS011;56575;48.942;8.404;2022-07-23T08:02:53;10.80;;;7.47;;
69386;SDS011;56575;48.942;8.404;2022-07-23T08:05:23;10.32;;;7.50;;
69386;SDS011;56575;48.942;8.404;2022-07-23T08:07:50;9.25;;;7.40;;
69386;SDS011;56575;48.942;8.404;2022-07-23T08:10:16;9.50;;;7.27;;
69386;SDS011;56575;48.942;8.404;2022-07-23T08:12:46;10.43;;;6.80;;
69386;SDS011;56575;48.942;8.404;2022-07-23T08:15:15;8.70;;;6.47;;
69386;SDS011;56575;48.942;8.404;2022-07-23T08:17:42;9.30;;;6.70;;
69386;SDS011;56575;48.942;8.404;2022-07-23T08:20:11;9.25;;;7.03;;
69386;SDS011;56575;48.942;8.404;2022-07-23T08:22:44;9.80;;;6.85;;
69386;SDS011;56575;48.942;8.404;2022-07-23T08:25:31;9.80;;;7.00;;
69386;SDS011;56575;48.942;8.404;2022-07-23T08:27:59;9.57;;;6.65;;
69386;SDS011;56575;48.942;8.404;2022-07-23T08:30:26;10.77;;;7.23;;
69386;SDS011;56575;48.942;8.404;2022-07-23T08:32:57;11.60;;;7.50;;
69386;SDS011;56575;48.942;8.404;2022-07-23T08:35:34;10.98;;;7.28;;
69386;SDS011;56575;48.942;8.404;2022-07-23T08:38:04;10.50;;;7.78;;
69386;SDS011;56575;48.942;8.404;2022-07-23T08:40:35;9.70;;;7.32;;
69386;SDS011;56575;48.942;8.404;2022-07-23T08:43:05;12.13;;;7.77;;
69386;SDS011;56575;48.942;8.404;2022-07-23T08:45:35;9.13;;;6.95;;
69386;SDS011;56575;48.942;8.404;2022-07-23T08:48:12;10.65;;;7.80;;
69386;SDS011;56575;48.942;8.404;2022-07-23T08:50:46;13.05;;;7.20;;
69386;SDS011;56575;48.942;8.404;2022-07-23T08:53:14;10.48;;;7.45;;
69386;SDS011;56575;48.942;8.404;2022-07-23T08:55:43;8.83;;;6.97;;
69386;SDS011;56575;48.942;8.404;2022-07-23T08:58:13;10.80;;;7.55;;
69386;SDS011;56575;48.942;8.404;2022-07-23T09:00:39;8.88;;;6.70;;
69386;SDS011;56575;48.942;8.404;2022-07-23T09:03:04;8.90;;;6.83;;
69386;SDS011;56575;48.942;8.404;2022-07-23T09:05:30;11.15;;;6.97;;
69386;SDS011;56575;48.942;8.404;2022-07-23T09:16:00;8.67;;;6.77;;
69386;SDS011;56575;48.942;8.404;2022-07-23T09:21:13;9.63;;;7.25;;
69386;SDS011;56575;48.942;8.404;2022-07-23T09:23:42;9.23;;;7.38;;
69386;SDS011;56575;48.942;8.404;2022-07-23T09:26:22;9.18;;;7.30;;
69386;SDS011;56575;48.942;8.404;2022-07-23T09:31:56;8.75;;;6.70;;
69386;SDS011;56575;48.942;8.404;2022-07-23T09:34:25;8.18;;;6.80;;
69386;SDS011;56575;48.942;8.404;2022-07-23T09:37:16;8.30;;;7.05;;
69386;SDS011;56575;48.942;8.404;2022-07-23T09:39:44;8.80;;;6.93;;
69386;SDS011;56575;48.942;8.404;2022-07-23T09:42:13;8.60;;;6.33;;
69386;SDS011;56575;48.942;8.404;2022-07-23T09:44:43;10.18;;;7.65;;
69386;SDS011;56575;48.942;8.404;2022-07-23T09:47:19;9.80;;;7.07;;
69386;SDS011;56575;48.942;8.404;2022-07-23T09:52:35;8.88;;;6.53;;
69386;SDS011;56575;48.942;8.404;2022-07-23T09:55:08;7.40;;;6.33;;
69386;SDS011;56575;48.942;8.404;2022-07-23T09:57:42;8.63;;;6.88;;
69386;SDS011;56575;48.942;8.404;2022-07-23T10:00:21;9.05;;;7.38;;
69386;SDS011;56575;48.942;8.404;2022-07-23T10:02:51;8.95;;;6.70;;
69386;SDS011;56575;48.942;8.404;2022-07-23T10:05:17;8.73;;;7.05;;
69386;SDS011;56575;48.942;8.404;2022-07-23T10:07:44;8.57;;;7.30;;
69386;SDS011;56575;48.942;8.404;2022-07-23T10:10:10;8.38;;;6.55;;
69386;SDS011;56575;48.942;8.404;2022-07-23T10:12:37;7.78;;;6.82;;
69386;SDS011;56575;48.942;8.404;2022-07-23T10:15:20;8.45;;;6.70;;
69386;SDS011;56575;48.942;8.404;2022-07-23T10:17:45;8.77;;;7.10;;
69386;SDS011;56575;48.942;8.404;2022-07-23T10:20:14;10.13;;;6.80;;
69386;SDS011;56575;48.942;8.404;2022-07-23T10:30:07;10.10;;;7.00;;
69386;SDS011;56575;48.942;8.404;2022-07-23T10:38:30;9.75;;;7.35;;
69386;SDS011;56575;48.942;8.404;2022-07-23T10:41:37;8.60;;;7.70;;
69386;SDS011;56575;48.942;8.404;2022-07-23T10:53:55;7.80;;;6.68;;
69386;SDS011;56575;48.942;8.404;2022-07-23T11:06:11;8.67;;;7.00;;
69386;SDS011;56575;48.942;8.404;2022-07-23T11:20:22;7.83;;;5.57;;
69386;SDS011;56575;48.942;8.404;2022-07-23T11:22:52;6.93;;;5.78;;
69386;SDS011;56575;48.942;8.404;2022-07-23T11:27:50;6.97;;;6.27;;
69386;SDS011;56575;48.942;8.404;2022-07-23T11:36:02;8.55;;;6.22;;
69386;SDS011;56575;48.942;8.404;2022-07-23T11:38:32;7.53;;;6.22;;
69386;SDS011;56575;48.942;8.404;2022-07-23T11:40:59;7.30;;;5.73;;
69386;SDS011;56575;48.942;8.404;2022-07-23T11:43:24;7.47;;;5.90;;
69386;SDS011;56575;48.942;8.404;2022-07-23T11:45:51;8.07;;;6.25;;
69386;SDS011;56575;48.942;8.404;2022-07-23T11:48:19;8.07;;;6.28;;
69386;SDS011;56575;48.942;8.404;2022-07-23T11:50:50;8.48;;;5.95;;
69386;SDS011;56575;48.942;8.404;2022-07-23T11:55:48;6.57;;;5.63;;
69386;SDS011;56575;48.942;8.404;2022-07-23T11:58:13;6.90;;;5.90;;
69386;SDS011;56575;48.942;8.404;2022-07-23T12:00:49;8.33;;;6.70;;
69386;SDS011;56575;48.942;8.404;2022-07-23T12:03:15;8.07;;;6.10;;
69386;SDS011;56575;48.942;8.404;2022-07-23T12:05:44;7.63;;;6.45;;
69386;SDS011;56575;48.942;8.404;2022-07-23T12:08:15;9.25;;;6.75;;
69386;SDS011;56575;48.942;8.404;2022-07-23T12:10:41;6.90;;;6.20;;
69386;SDS011;56575;48.942;8.404;2022-07-23T12:13:09;7.93;;;6.47;;
69386;SDS011;56575;48.942;8.404;2022-07-23T12:15:40;7.07;;;6.38;;
69386;SDS011;56575;48.942;8.404;2022-07-23T12:18:08;8.07;;;6.57;;
69386;SDS011;56575;48.942;8.404;2022-07-23T12:20:45;8.97;;;6.57;;
69386;SDS011;56575;48.942;8.404;2022-07-23T12:23:16;7.25;;;6.30;;
69386;SDS011;56575;48.942;8.404;2022-07-23T12:25:46;9.98;;;6.50;;
69386;SDS011;56575;48.942;8.404;2022-07-23T12:28:17;7.88;;;6.72;;
69386;SDS011;56575;48.942;8.404;2022-07-23T12:30:48;8.15;;;6.80;;
69386;SDS011;56575;48.942;8.404;2022-07-23T12:33:28;8.23;;;7.03;;
69386;SDS011;56575;48.942;8.404;2022-07-23T12:35:57;8.75;;;6.80;;
69386;SDS011;56575;48.942;8.404;2022-07-23T12:38:24;7.90;;;6.43;;
69386;SDS011;56575;48.942;8.404;2022-07-23T12:45:55;7.90;;;6.53;;
69386;SDS011;56575;48.942;8.404;2022-07-23T12:48:27;7.72;;;6.70;;
69386;SDS011;56575;48.942;8.404;2022-07-23T12:50:55;8.90;;;6.88;;
69386;SDS011;56575;48.942;8.404;2022-07-23T12:53:38;8.65;;;7.00;;
69386;SDS011;56575;48.942;8.404;2022-07-23T12:56:15;10.85;;;6.30;;
69386;SDS011;56575;48.942;8.404;2022-07-23T13:01:21;7.35;;;6.25;;
69386;SDS011;56575;48.942;8.404;2022-07-23T13:03:57;7.53;;;6.75;;
69386;SDS011;56575;48.942;8.404;2022-07-23T13:06:34;7.68;;;6.40;;
69386;SDS011;56575;48.942;8.404;2022-07-23T13:09:02;7.38;;;6.22;;
69386;SDS011;56575;48.942;8.404;2022-07-23T13:11:29;8.07;;;6.60;;
69386;SDS011;56575;48.942;8.404;2022-07-23T13:13:55;7.75;;;6.40;;
69386;SDS011;56575;48.942;8.404;2022-07-23T13:16:20;8.93;;;7.00;;
69386;SDS011;56575;48.942;8.404;2022-07-23T13:18:46;8.10;;;6.90;;
69386;SDS011;56575;48.942;8.404;2022-07-23T13:21:11;7.97;;;6.23;;
69386;SDS011;56575;48.942;8.404;2022-07-23T13:23:37;7.40;;;6.40;;
69386;SDS011;56575;48.942;8.404;2022-07-23T13:26:03;8.57;;;7.10;;
69386;SDS011;56575;48.942;8.404;2022-07-23T13:28:29;8.70;;;6.90;;
69386;SDS011;56575;48.942;8.404;2022-07-23T13:30:55;8.02;;;6.80;;
69386;SDS011;56575;48.942;8.404;2022-07-23T13:33:21;15.52;;;7.05;;
69386;SDS011;56575;48.942;8.404;2022-07-23T13:35:48;8.83;;;6.60;;
69386;SDS011;56575;48.942;8.404;2022-07-23T13:38:14;8.13;;;6.60;;
69386;SDS011;56575;48.942;8.404;2022-07-23T13:40:43;10.40;;;6.60;;
69386;SDS011;56575;48.942;8.404;2022-07-23T13:43:10;8.50;;;6.70;;
69386;SDS011;56575;48.942;8.404;2022-07-23T13:45:37;7.95;;;6.57;;
69386;SDS011;56575;48.942;8.404;2022-07-23T13:48:05;8.57;;;6.22;;
69386;SDS011;56575;48.942;8.404;2022-07-23T13:50:31;8.70;;;6.72;;
69386;SDS011;56575;48.942;8.404;2022-07-23T13:52:59;7.47;;;6.40;;
69386;SDS011;56575;48.942;8.404;2022-07-23T13:55:26;8.32;;;6.45;;
69386;SDS011;56575;48.942;8.404;2022-07-23T13:57:52;7.30;;;6.20;;
69386;SDS011;56575;48.942;8.404;2022-07-23T14:00:17;7.57;;;6.40;;
69386;SDS011;56575;48.942;8.404;2022-07-23T14:02:43;8.13;;;6.37;;
69386;SDS011;56575;48.942;8.404;2022-07-23T14:05:09;7.07;;;6.37;;
69386;SDS011;56575;48.942;8.404;2022-07-23T14:07:35;8.25;;;6.13;;
69386;SDS011;56575;48.942;8.404;2022-07-23T14:10:02;8.40;;;6.53;;
69386;SDS011;56575;48.942;8.404;2022-07-23T14:12:29;7.90;;;6.45;;
69386;SDS011;56575;48.942;8.404;2022-07-23T14:14:56;7.88;;;6.43;;
69386;SDS011;56575;48.942;8.404;2022-07-23T14:17:21;8.17;;;6.30;;
69386;SDS011;56575;48.942;8.404;2022-07-23T14:19:47;7.88;;;6.00;;
69386;SDS011;56575;48.942;8.404;2022-07-23T14:22:13;8.50;;;6.57;;
69386;SDS011;56575;48.942;8.404;2022-07-23T14:24:39;7.78;;;6.00;;
69386;SDS011;56575;48.942;8.404;2022-07-23T14:27:04;7.53;;;6.10;;
69386;SDS011;56575;48.942;8.404;2022-07-23T14:29:30;6.57;;;5.88;;
69386;SDS011;56575;48.942;8.404;2022-07-23T14:31:56;7.03;;;6.33;;
69386;SDS011;56575;48.942;8.404;2022-07-23T14:34:25;7.10;;;5.88;;
69386;SDS011;56575;48.942;8.404;2022-07-23T14:36:54;8.35;;;6.07;;
69386;SDS011;56575;48.942;8.404;2022-07-23T14:39:20;7.53;;;6.23;;
69386;SDS011;56575;48.942;8.404;2022-07-23T14:41:45;8.48;;;6.28;;
69386;SDS011;56575;48.942;8.404;2022-07-23T14:44:11;9.00;;;6.60;;
69386;SDS011;56575;48.942;8.404;2022-07-23T14:46:36;8.10;;;6.43;;
69386;SDS011;56575;48.942;8.404;2022-07-23T14:49:02;7.80;;;6.80;;
69386;SDS011;56575;48.942;8.404;2022-07-23T14:51:28;8.55;;;6.40;;
69386;SDS011;56575;48.942;8.404;2022-07-23T14:53:54;8.07;;;6.32;;
69386;SDS011;56575;48.942;8.404;2022-07-23T14:56:19;8.73;;;6.63;;
69386;SDS011;56575;48.942;8.404;2022-07-23T14:58:45;7.83;;;6.50;;
69386;SDS011;56575;48.942;8.404;2022-07-23T15:01:10;8.50;;;6.43;;
69386;SDS011;56575;48.942;8.404;2022-07-23T15:03:36;7.50;;;6.50;;
69386;SDS011;56575;48.942;8.404;2022-07-23T15:06:01;8.50;;;6.80;;
69386;SDS011;56575;48.942;8.404;2022-07-23T15:08:27;10.57;;;6.87;;
69386;SDS011;56575;48.942;8.404;2022-07-23T15:10:52;9.10;;;7.13;;
69386;SDS011;56575;48.942;8.404;2022-07-23T15:13:18;8.90;;;7.07;;
69386;SDS011;56575;48.942;8.404;2022-07-23T15:15:43;7.90;;;7.00;;
69386;SDS011;56575;48.942;8.404;2022-07-23T15:18:09;8.25;;;6.57;;
69386;SDS011;56575;48.942;8.404;2022-07-23T15:20:35;8.13;;;6.97;;
69386;SDS011;56575;48.942;8.404;2022-07-23T15:23:02;9.45;;;6.72;;
69386;SDS011;56575;48.942;8.404;2022-07-23T15:25:28;7.80;;;6.50;;
69386;SDS011;56575;48.942;8.404;2022-07-23T15:27:53;11.75;;;6.78;;
69386;SDS011;56575;48.942;8.404;2022-07-23T15:30:19;8.00;;;6.40;;
69386;SDS011;56575;48.942;8.404;2022-07-23T15:32:44;8.40;;;6.53;;
69386;SDS011;56575;48.942;8.404;2022-07-23T15:35:10;7.32;;;6.50;;
69386;SDS011;56575;48.942;8.404;2022-07-23T15:37:35;8.40;;;7.00;;
69386;SDS011;56575;48.942;8.404;2022-07-23T15:40:01;21.17;;;7.73;;
69386;SDS011;56575;48.942;8.404;2022-07-23T15:42:30;9.15;;;6.78;;
69386;SDS011;56575;48.942;8.404;2022-07-23T15:44:55;9.70;;;6.93;;
69386;SDS011;56575;48.942;8.404;2022-07-23T15:47:21;11.32;;;6.38;;
69386;SDS011;56575;48.942;8.404;2022-07-23T15:49:47;12.32;;;6.68;;
69386;SDS011;56575;48.942;8.404;2022-07-23T15:52:13;25.30;;;7.60;;
69386;SDS011;56575;48.942;8.404;2022-07-23T15:54:38;8.48;;;6.43;;
69386;SDS011;56575;48.942;8.404;2022-07-23T15:57:04;9.63;;;6.75;;
69386;SDS011;56575;48.942;8.404;2022-07-23T15:59:31;8.23;;;7.10;;
69386;SDS011;56575;48.942;8.404;2022-07-23T16:01:57;10.02;;;6.45;;
69386;SDS011;56575;48.942;8.404;2022-07-23T16:04:22;8.03;;;6.50;;
69386;SDS011;56575;48.942;8.404;2022-07-23T16:06:48;8.85;;;6.88;;
69386;SDS011;56575;48.942;8.404;2022-07-23T16:09:32;9.82;;;6.53;;
69386;SDS011;56575;48.942;8.404;2022-07-23T16:11:58;7.97;;;6.67;;
69386;SDS011;56575;48.942;8.404;2022-07-23T16:14:23;8.33;;;6.77;;
69386;SDS011;56575;48.942;8.404;2022-07-23T16:16:48;8.47;;;6.70;;
69386;SDS011;56575;48.942;8.404;2022-07-23T16:19:14;9.07;;;7.43;;
69386;SDS011;56575;48.942;8.404;2022-07-23T16:21:39;11.27;;;7.03;;
69386;SDS011;56575;48.942;8.404;2022-07-23T16:24:05;9.00;;;7.20;;
69386;SDS011;56575;48.942;8.404;2022-07-23T16:26:31;11.63;;;7.47;;
69386;SDS011;56575;48.942;8.404;2022-07-23T16:28:56;7.83;;;7.03;;
69386;SDS011;56575;48.942;8.404;2022-07-23T16:31:21;9.43;;;7.50;;
69386;SDS011;56575;48.942;8.404;2022-07-23T16:33:58;8.50;;;6.97;;
69386;SDS011;56575;48.942;8.404;2022-07-23T16:36:23;9.38;;;7.60;;
69386;SDS011;56575;48.942;8.404;2022-07-23T16:38:48;8.87;;;7.10;;
69386;SDS011;56575;48.942;8.404;2022-07-23T16:41:17;9.50;;;7.50;;
69386;SDS011;56575;48.942;8.404;2022-07-23T16:43:45;9.15;;;7.45;;
69386;SDS011;56575;48.942;8.404;2022-07-23T16:46:10;9.13;;;7.17;;
69386;SDS011;56575;48.942;8.404;2022-07-23T16:48:36;9.88;;;6.55;;
69386;SDS011;56575;48.942;8.404;2022-07-23T16:51:03;11.98;;;7.10;;
69386;SDS011;56575;48.942;8.404;2022-07-23T16:53:28;8.53;;;6.87;;
69386;SDS011;56575;48.942;8.404;2022-07-23T16:55:53;9.07;;;6.67;;
69386;SDS011;56575;48.942;8.404;2022-07-23T16:58:20;9.27;;;6.57;;
69386;SDS011;56575;48.942;8.404;2022-07-23T17:00:45;11.10;;;6.75;;
69386;SDS011;56575;48.942;8.404;2022-07-23T17:03:11;11.05;;;7.03;;
69386;SDS011;56575;48.942;8.404;2022-07-23T17:05:36;8.43;;;6.80;;
69386;SDS011;56575;48.942;8.404;2022-07-23T17:08:02;8.87;;;6.40;;
69386;SDS011;56575;48.942;8.404;2022-07-23T17:10:29;8.57;;;6.28;;
69386;SDS011;56575;48.942;8.404;2022-07-23T17:12:55;8.67;;;7.13;;
69386;SDS011;56575;48.942;8.404;2022-07-23T17:15:22;9.98;;;7.70;;
69386;SDS011;56575;48.942;8.404;2022-07-23T17:17:48;8.63;;;6.93;;
69386;SDS011;56575;48.942;8.404;2022-07-23T17:20:14;13.50;;;7.95;;
69386;SDS011;56575;48.942;8.404;2022-07-23T17:22:40;10.13;;;7.27;;
69386;SDS011;56575;48.942;8.404;2022-07-23T17:25:07;9.20;;;6.88;;
69386;SDS011;56575;48.942;8.404;2022-07-23T17:27:41;9.63;;;6.88;;
69386;SDS011;56575;48.942;8.404;2022-07-23T17:30:26;8.93;;;6.88;;
69386;SDS011;56575;48.942;8.404;2022-07-23T17:32:52;9.27;;;7.03;;
69386;SDS011;56575;48.942;8.404;2022-07-23T17:38:21;7.03;;;5.80;;